sensor_id;sensor_type;location;lat;lon;timestamp;temperature;humidity
71801;HTU21D;59647;55.838;37.292;2023-01-28T00:01:20;-0.21;102.45
71801;HTU21D;59647;55.838;37.292;2023-01-28T00:03:48;-0.20;100.66
71801;HTU21D;59647;55.838;37.292;2023-01-28T00:06:14;-0.19;99.38
71801;HTU21D;59647;55.838;37.292;2023-01-28T00:08:40;-0.24;101.44
71801;HTU21D;59647;55.838;37.292;2023-01-28T00:11:06;-0.22;99.70
71801;HTU21D;59647;55.838;37.292;2023-01-28T00:13:33;-0.24;99.74
71801;HTU21D;59647;55.838;37.292;2023-01-28T00:16:00;-0.26;100.67
71801;HTU21D;59647;55.838;37.292;2023-01-28T00:18:26;-0.26;100.38
71801;HTU21D;59647;55.838;37.292;2023-01-28T00:21:06;-0.30;99.87
71801;HTU21D;59647;55.838;37.292;2023-01-28T00:23:32;-0.36;102.78
71801;HTU21D;59647;55.838;37.292;2023-01-28T00:25:59;-0.32;101.06
71801;HTU21D;59647;55.838;37.292;2023-01-28T00:28:25;-0.35;102.70
71801;HTU21D;59647;55.838;37.292;2023-01-28T00:30:51;-0.30;99.87
71801;HTU21D;59647;55.838;37.292;2023-01-28T00:33:17;-0.30;99.89
71801;HTU21D;59647;55.838;37.292;2023-01-28T00:35:42;-0.37;100.25
71801;HTU21D;59647;55.838;37.292;2023-01-28T00:38:09;-0.38;101.83
71801;HTU21D;59647;55.838;37.292;2023-01-28T00:40:35;-0.37;100.54
71801;HTU21D;59647;55.838;37.292;2023-01-28T00:43:02;-0.34;99.67
71801;HTU21D;59647;55.838;37.292;2023-01-28T00:45:29;-0.38;100.48
71801;HTU21D;59647;55.838;37.292;2023-01-28T00:47:54;-0.35;99.81
71801;HTU21D;59647;55.838;37.292;2023-01-28T00:50:20;-0.39;99.91
71801;HTU21D;59647;55.838;37.292;2023-01-28T00:52:46;-0.43;101.42
71801;HTU21D;59647;55.838;37.292;2023-01-28T00:55:12;-0.38;100.65
71801;HTU21D;59647;55.838;37.292;2023-01-28T00:57:39;-0.39;100.74
71801;HTU21D;59647;55.838;37.292;2023-01-28T01:00:07;-0.41;99.97
71801;HTU21D;59647;55.838;37.292;2023-01-28T01:02:33;-0.44;99.97
71801;HTU21D;59647;55.838;37.292;2023-01-28T01:04:59;-0.44;99.42
71801;HTU21D;59647;55.838;37.292;2023-01-28T01:07:26;-0.56;101.44
71801;HTU21D;59647;55.838;37.292;2023-01-28T01:10:08;-0.54;99.65
71801;HTU21D;59647;55.838;37.292;2023-01-28T01:12:34;-0.57;99.83
71801;HTU21D;59647;55.838;37.292;2023-01-28T01:15:00;-0.60;99.64
71801;HTU21D;59647;55.838;37.292;2023-01-28T01:17:28;-0.64;100.22
71801;HTU21D;59647;55.838;37.292;2023-01-28T01:19:54;-0.60;99.26
71801;HTU21D;59647;55.838;37.292;2023-01-28T01:22:19;-0.66;99.13
71801;HTU21D;59647;55.838;37.292;2023-01-28T01:24:46;-0.74;100.06
71801;HTU21D;59647;55.838;37.292;2023-01-28T01:27:13;-0.73;101.32
71801;HTU21D;59647;55.838;37.292;2023-01-28T01:29:39;-0.72;100.16
71801;HTU21D;59647;55.838;37.292;2023-01-28T01:32:05;-0.67;99.71
71801;HTU21D;59647;55.838;37.292;2023-01-28T01:34:32;-0.68;99.47
71801;HTU21D;59647;55.838;37.292;2023-01-28T01:36:58;-0.71;99.63
71801;HTU21D;59647;55.838;37.292;2023-01-28T01:39:24;-0.75;100.53
71801;HTU21D;59647;55.838;37.292;2023-01-28T01:41:50;-0.73;100.52
71801;HTU21D;59647;55.838;37.292;2023-01-28T01:47:02;-0.65;100.96
71801;HTU21D;59647;55.838;37.292;2023-01-28T01:49:28;-0.61;100.34
71801;HTU21D;59647;55.838;37.292;2023-01-28T01:51:56;-0.65;100.00
71801;HTU21D;59647;55.838;37.292;2023-01-28T01:54:26;-0.64;99.04
71801;HTU21D;59647;55.838;37.292;2023-01-28T01:56:55;-0.69;99.35
71801;HTU21D;59647;55.838;37.292;2023-01-28T01:59:26;-0.75;98.97
71801;HTU21D;59647;55.838;37.292;2023-01-28T02:01:53;-0.83;100.06
71801;HTU21D;59647;55.838;37.292;2023-01-28T02:04:24;-0.82;99.79
71801;HTU21D;59647;55.838;37.292;2023-01-28T02:06:50;-0.85;100.49
71801;HTU21D;59647;55.838;37.292;2023-01-28T02:09:25;-0.88;99.32
71801;HTU21D;59647;55.838;37.292;2023-01-28T02:11:53;-0.93;99.53
71801;HTU21D;59647;55.838;37.292;2023-01-28T02:14:20;-0.95;99.42
71801;HTU21D;59647;55.838;37.292;2023-01-28T02:17:07;-0.99;99.72
71801;HTU21D;59647;55.838;37.292;2023-01-28T02:19:37;-0.97;99.34
71801;HTU21D;59647;55.838;37.292;2023-01-28T02:22:08;-0.96;99.64
71801;HTU21D;59647;55.838;37.292;2023-01-28T02:24:49;-1.01;100.10
71801;HTU21D;59647;55.838;37.292;2023-01-28T02:30:13;-1.01;100.12
71801;HTU21D;59647;55.838;37.292;2023-01-28T02:32:51;-1.02;100.73
71801;HTU21D;59647;55.838;37.292;2023-01-28T02:38:02;-1.01;99.90
71801;HTU21D;59647;55.838;37.292;2023-01-28T02:40:32;-1.01;100.93
71801;HTU21D;59647;55.838;37.292;2023-01-28T02:43:28;-1.00;100.64
71801;HTU21D;59647;55.838;37.292;2023-01-28T02:45:54;-1.04;100.85
71801;HTU21D;59647;55.838;37.292;2023-01-28T02:48:40;-1.03;101.63
71801;HTU21D;59647;55.838;37.292;2023-01-28T02:51:09;-0.98;100.06
71801;HTU21D;59647;55.838;37.292;2023-01-28T02:53:44;-1.01;101.37
71801;HTU21D;59647;55.838;37.292;2023-01-28T03:01:27;-1.13;99.28
71801;HTU21D;59647;55.838;37.292;2023-01-28T03:04:06;-1.19;100.61
71801;HTU21D;59647;55.838;37.292;2023-01-28T03:06:34;-1.24;100.93
71801;HTU21D;59647;55.838;37.292;2023-01-28T03:09:04;-1.24;100.19
71801;HTU21D;59647;55.838;37.292;2023-01-28T03:12:03;-1.27;100.12
71801;HTU21D;59647;55.838;37.292;2023-01-28T03:14:49;-1.29;100.20
71801;HTU21D;59647;55.838;37.292;2023-01-28T03:18:08;-1.27;100.19
71801;HTU21D;59647;55.838;37.292;2023-01-28T03:24:19;-1.31;100.53
71801;HTU21D;59647;55.838;37.292;2023-01-28T03:26:40;-1.33;99.50
71801;HTU21D;59647;55.838;37.292;2023-01-28T03:29:28;-1.39;99.65
71801;HTU21D;59647;55.838;37.292;2023-01-28T03:32:16;-1.47;101.32
71801;HTU21D;59647;55.838;37.292;2023-01-28T03:35:02;-1.45;100.96
71801;HTU21D;59647;55.838;37.292;2023-01-28T03:37:48;-1.43;100.99
71801;HTU21D;59647;55.838;37.292;2023-01-28T03:40:20;-1.41;100.29
71801;HTU21D;59647;55.838;37.292;2023-01-28T03:42:46;-1.40;101.22
71801;HTU21D;59647;55.838;37.292;2023-01-28T03:45:31;-1.41;100.50
71801;HTU21D;59647;55.838;37.292;2023-01-28T03:48:00;-1.42;102.77
71801;HTU21D;59647;55.838;37.292;2023-01-28T03:50:25;-1.39;101.55
71801;HTU21D;59647;55.838;37.292;2023-01-28T03:52:57;-1.35;101.77
71801;HTU21D;59647;55.838;37.292;2023-01-28T03:55:43;-1.34;102.35
71801;HTU21D;59647;55.838;37.292;2023-01-28T03:58:10;-1.31;100.71
71801;HTU21D;59647;55.838;37.292;2023-01-28T04:00:36;-1.34;101.88
71801;HTU21D;59647;55.838;37.292;2023-01-28T04:03:07;-1.36;101.06
71801;HTU21D;59647;55.838;37.292;2023-01-28T04:05:57;-1.39;100.23
71801;HTU21D;59647;55.838;37.292;2023-01-28T04:08:23;-1.43;102.37
71801;HTU21D;59647;55.838;37.292;2023-01-28T04:11:15;-1.42;99.75
71801;HTU21D;59647;55.838;37.292;2023-01-28T04:13:44;-1.48;99.96
71801;HTU21D;59647;55.838;37.292;2023-01-28T04:16:13;-1.55;101.88
71801;HTU21D;59647;55.838;37.292;2023-01-28T04:18:40;-1.55;102.47
71801;HTU21D;59647;55.838;37.292;2023-01-28T04:21:09;-1.54;101.03
71801;HTU21D;59647;55.838;37.292;2023-01-28T04:23:35;-1.56;102.55
71801;HTU21D;59647;55.838;37.292;2023-01-28T04:26:02;-1.55;100.95
71801;HTU21D;59647;55.838;37.292;2023-01-28T04:28:29;-1.64;101.67
71801;HTU21D;59647;55.838;37.292;2023-01-28T04:30:56;-1.70;101.96
71801;HTU21D;59647;55.838;37.292;2023-01-28T04:33:40;-1.67;100.33
71801;HTU21D;59647;55.838;37.292;2023-01-28T04:36:27;-1.70;100.98
71801;HTU21D;59647;55.838;37.292;2023-01-28T04:39:20;-1.76;102.22
71801;HTU21D;59647;55.838;37.292;2023-01-28T04:42:05;-1.85;102.77
71801;HTU21D;59647;55.838;37.292;2023-01-28T04:44:54;-1.79;101.44
71801;HTU21D;59647;55.838;37.292;2023-01-28T04:47:39;-1.80;100.85
71801;HTU21D;59647;55.838;37.292;2023-01-28T04:50:25;-1.82;101.97
71801;HTU21D;59647;55.838;37.292;2023-01-28T04:53:17;-1.84;101.41
71801;HTU21D;59647;55.838;37.292;2023-01-28T04:56:09;-1.89;102.62
71801;HTU21D;59647;55.838;37.292;2023-01-28T04:58:36;-1.88;101.10
71801;HTU21D;59647;55.838;37.292;2023-01-28T05:01:05;-1.86;100.60
71801;HTU21D;59647;55.838;37.292;2023-01-28T05:03:32;-1.85;100.78
71801;HTU21D;59647;55.838;37.292;2023-01-28T05:05:59;-1.88;101.31
71801;HTU21D;59647;55.838;37.292;2023-01-28T05:08:39;-1.93;100.96
71801;HTU21D;59647;55.838;37.292;2023-01-28T05:11:05;-1.94;100.80
71801;HTU21D;59647;55.838;37.292;2023-01-28T05:13:31;-1.93;100.93
71801;HTU21D;59647;55.838;37.292;2023-01-28T05:15:56;-1.94;100.06
71801;HTU21D;59647;55.838;37.292;2023-01-28T05:18:22;-2.04;100.63
71801;HTU21D;59647;55.838;37.292;2023-01-28T05:21:11;-2.06;100.82
71801;HTU21D;59647;55.838;37.292;2023-01-28T05:23:38;-2.08;100.84
71801;HTU21D;59647;55.838;37.292;2023-01-28T05:26:04;-2.09;101.22
71801;HTU21D;59647;55.838;37.292;2023-01-28T05:28:30;-2.09;100.63
71801;HTU21D;59647;55.838;37.292;2023-01-28T05:31:01;-2.12;100.41
71801;HTU21D;59647;55.838;37.292;2023-01-28T05:33:27;-2.15;100.29
71801;HTU21D;59647;55.838;37.292;2023-01-28T05:35:53;-2.18;100.58
71801;HTU21D;59647;55.838;37.292;2023-01-28T05:38:21;-2.16;100.03
71801;HTU21D;59647;55.838;37.292;2023-01-28T05:40:47;-2.19;101.10
71801;HTU21D;59647;55.838;37.292;2023-01-28T05:43:13;-2.20;101.26
71801;HTU21D;59647;55.838;37.292;2023-01-28T05:46:06;-2.17;99.70
71801;HTU21D;59647;55.838;37.292;2023-01-28T05:48:52;-2.21;99.97
71801;HTU21D;59647;55.838;37.292;2023-01-28T05:51:30;-2.21;101.06
71801;HTU21D;59647;55.838;37.292;2023-01-28T05:53:58;-2.18;99.91
71801;HTU21D;59647;55.838;37.292;2023-01-28T05:56:23;-2.20;100.35
71801;HTU21D;59647;55.838;37.292;2023-01-28T05:58:51;-2.18;100.96
71801;HTU21D;59647;55.838;37.292;2023-01-28T06:01:17;-2.09;100.32
71801;HTU21D;59647;55.838;37.292;2023-01-28T06:03:50;-2.04;99.90
71801;HTU21D;59647;55.838;37.292;2023-01-28T06:06:16;-2.04;99.50
71801;HTU21D;59647;55.838;37.292;2023-01-28T06:08:43;-2.08;99.85
71801;HTU21D;59647;55.838;37.292;2023-01-28T06:11:10;-2.08;99.91
71801;HTU21D;59647;55.838;37.292;2023-01-28T06:13:36;-2.06;99.61
71801;HTU21D;59647;55.838;37.292;2023-01-28T06:16:20;-2.08;99.52
71801;HTU21D;59647;55.838;37.292;2023-01-28T06:19:09;-2.08;99.06
71801;HTU21D;59647;55.838;37.292;2023-01-28T06:21:34;-2.14;99.57
71801;HTU21D;59647;55.838;37.292;2023-01-28T06:24:00;-2.10;99.51
71801;HTU21D;59647;55.838;37.292;2023-01-28T06:26:26;-2.06;99.41
71801;HTU21D;59647;55.838;37.292;2023-01-28T06:28:51;-2.00;99.25
71801;HTU21D;59647;55.838;37.292;2023-01-28T06:31:17;-2.03;99.26
71801;HTU21D;59647;55.838;37.292;2023-01-28T06:33:43;-2.02;99.31
71801;HTU21D;59647;55.838;37.292;2023-01-28T06:36:09;-2.04;99.29
71801;HTU21D;59647;55.838;37.292;2023-01-28T06:38:34;-2.03;99.27
71801;HTU21D;59647;55.838;37.292;2023-01-28T06:41:00;-2.02;98.97
71801;HTU21D;59647;55.838;37.292;2023-01-28T06:43:26;-2.06;99.06
71801;HTU21D;59647;55.838;37.292;2023-01-28T06:45:58;-2.07;98.98
71801;HTU21D;59647;55.838;37.292;2023-01-28T06:48:24;-2.08;99.23
71801;HTU21D;59647;55.838;37.292;2023-01-28T06:50:49;-2.13;99.74
71801;HTU21D;59647;55.838;37.292;2023-01-28T06:53:15;-2.07;99.00
71801;HTU21D;59647;55.838;37.292;2023-01-28T06:55:41;-2.07;99.25
71801;HTU21D;59647;55.838;37.292;2023-01-28T06:58:07;-2.01;99.29
71801;HTU21D;59647;55.838;37.292;2023-01-28T07:00:33;-2.02;98.96
71801;HTU21D;59647;55.838;37.292;2023-01-28T07:02:58;-2.06;98.41
71801;HTU21D;59647;55.838;37.292;2023-01-28T07:05:24;-2.13;98.96
71801;HTU21D;59647;55.838;37.292;2023-01-28T07:07:50;-2.12;99.14
71801;HTU21D;59647;55.838;37.292;2023-01-28T07:10:16;-2.15;99.00
71801;HTU21D;59647;55.838;37.292;2023-01-28T07:12:41;-2.12;98.74
71801;HTU21D;59647;55.838;37.292;2023-01-28T07:15:07;-2.16;99.42
71801;HTU21D;59647;55.838;37.292;2023-01-28T07:17:37;-2.15;99.05
71801;HTU21D;59647;55.838;37.292;2023-01-28T07:20:03;-2.08;98.71
71801;HTU21D;59647;55.838;37.292;2023-01-28T07:22:29;-2.07;99.02
71801;HTU21D;59647;55.838;37.292;2023-01-28T07:24:55;-2.10;99.62
71801;HTU21D;59647;55.838;37.292;2023-01-28T07:27:20;-2.08;99.50
71801;HTU21D;59647;55.838;37.292;2023-01-28T07:29:46;-2.03;99.41
71801;HTU21D;59647;55.838;37.292;2023-01-28T07:32:12;-1.99;99.35
71801;HTU21D;59647;55.838;37.292;2023-01-28T07:34:43;-1.97;99.22
71801;HTU21D;59647;55.838;37.292;2023-01-28T07:37:09;-1.94;99.00
71801;HTU21D;59647;55.838;37.292;2023-01-28T07:39:35;-1.92;99.25
71801;HTU21D;59647;55.838;37.292;2023-01-28T07:42:01;-1.88;99.32
71801;HTU21D;59647;55.838;37.292;2023-01-28T07:44:44;-1.78;98.99
71801;HTU21D;59647;55.838;37.292;2023-01-28T07:47:10;-1.78;98.58
71801;HTU21D;59647;55.838;37.292;2023-01-28T07:49:38;-1.80;98.19
71801;HTU21D;59647;55.838;37.292;2023-01-28T07:52:04;-1.84;97.81
71801;HTU21D;59647;55.838;37.292;2023-01-28T07:54:31;-1.85;97.74
71801;HTU21D;59647;55.838;37.292;2023-01-28T07:57:17;-1.92;97.76
71801;HTU21D;59647;55.838;37.292;2023-01-28T07:59:49;-1.94;97.91
71801;HTU21D;59647;55.838;37.292;2023-01-28T08:02:15;-1.97;98.52
71801;HTU21D;59647;55.838;37.292;2023-01-28T08:04:41;-2.01;98.45
71801;HTU21D;59647;55.838;37.292;2023-01-28T08:07:09;-2.01;98.77
71801;HTU21D;59647;55.838;37.292;2023-01-28T08:09:36;-2.00;98.80
71801;HTU21D;59647;55.838;37.292;2023-01-28T08:12:04;-1.98;98.67
71801;HTU21D;59647;55.838;37.292;2023-01-28T08:14:31;-1.93;99.26
71801;HTU21D;59647;55.838;37.292;2023-01-28T08:17:02;-1.88;98.55
71801;HTU21D;59647;55.838;37.292;2023-01-28T08:19:28;-1.88;98.75
71801;HTU21D;59647;55.838;37.292;2023-01-28T08:21:58;-1.82;98.86
71801;HTU21D;59647;55.838;37.292;2023-01-28T08:24:24;-1.78;98.94
71801;HTU21D;59647;55.838;37.292;2023-01-28T08:26:49;-1.74;98.89
71801;HTU21D;59647;55.838;37.292;2023-01-28T08:29:15;-1.69;98.71
71801;HTU21D;59647;55.838;37.292;2023-01-28T08:31:42;-1.63;98.56
71801;HTU21D;59647;55.838;37.292;2023-01-28T08:34:15;-1.61;98.59
71801;HTU21D;59647;55.838;37.292;2023-01-28T08:36:40;-1.62;98.08
71801;HTU21D;59647;55.838;37.292;2023-01-28T08:39:10;-1.64;98.26
71801;HTU21D;59647;55.838;37.292;2023-01-28T08:41:51;-1.63;98.45
71801;HTU21D;59647;55.838;37.292;2023-01-28T08:44:26;-1.54;98.43
71801;HTU21D;59647;55.838;37.292;2023-01-28T08:46:52;-1.48;98.37
71801;HTU21D;59647;55.838;37.292;2023-01-28T08:49:17;-1.47;98.08
71801;HTU21D;59647;55.838;37.292;2023-01-28T08:51:43;-1.46;98.05
71801;HTU21D;59647;55.838;37.292;2023-01-28T08:54:08;-1.53;97.49
71801;HTU21D;59647;55.838;37.292;2023-01-28T08:56:34;-1.47;97.81
71801;HTU21D;59647;55.838;37.292;2023-01-28T08:59:00;-1.41;97.77
71801;HTU21D;59647;55.838;37.292;2023-01-28T09:01:25;-1.42;97.69
71801;HTU21D;59647;55.838;37.292;2023-01-28T09:03:53;-1.42;97.42
71801;HTU21D;59647;55.838;37.292;2023-01-28T09:06:19;-1.47;97.48
71801;HTU21D;59647;55.838;37.292;2023-01-28T09:08:44;-1.41;97.64
71801;HTU21D;59647;55.838;37.292;2023-01-28T09:11:10;-1.41;97.52
71801;HTU21D;59647;55.838;37.292;2023-01-28T09:13:36;-1.36;97.48
71801;HTU21D;59647;55.838;37.292;2023-01-28T09:16:05;-1.35;97.52
71801;HTU21D;59647;55.838;37.292;2023-01-28T09:18:30;-1.36;97.46
71801;HTU21D;59647;55.838;37.292;2023-01-28T09:20:56;-1.34;97.36
71801;HTU21D;59647;55.838;37.292;2023-01-28T09:23:22;-1.35;97.34
71801;HTU21D;59647;55.838;37.292;2023-01-28T09:25:47;-1.34;97.33
71801;HTU21D;59647;55.838;37.292;2023-01-28T09:28:13;-1.35;96.87
71801;HTU21D;59647;55.838;37.292;2023-01-28T09:30:39;-1.32;97.18
71801;HTU21D;59647;55.838;37.292;2023-01-28T09:33:04;-1.31;97.28
71801;HTU21D;59647;55.838;37.292;2023-01-28T09:35:33;-1.31;97.25
71801;HTU21D;59647;55.838;37.292;2023-01-28T09:37:59;-1.34;97.11
71801;HTU21D;59647;55.838;37.292;2023-01-28T09:40:35;-1.33;97.26
71801;HTU21D;59647;55.838;37.292;2023-01-28T09:45:30;-1.28;97.15
71801;HTU21D;59647;55.838;37.292;2023-01-28T09:47:58;-1.26;97.15
71801;HTU21D;59647;55.838;37.292;2023-01-28T09:50:32;-1.20;96.82
71801;HTU21D;59647;55.838;37.292;2023-01-28T09:53:00;-1.11;97.09
71801;HTU21D;59647;55.838;37.292;2023-01-28T09:55:31;-1.17;96.15
71801;HTU21D;59647;55.838;37.292;2023-01-28T09:57:57;-1.24;96.13
71801;HTU21D;59647;55.838;37.292;2023-01-28T10:00:25;-1.20;96.81
71801;HTU21D;59647;55.838;37.292;2023-01-28T10:05:32;-1.21;96.64
71801;HTU21D;59647;55.838;37.292;2023-01-28T10:08:06;-1.20;95.49
71801;HTU21D;59647;55.838;37.292;2023-01-28T10:10:46;-1.16;96.57
71801;HTU21D;59647;55.838;37.292;2023-01-28T10:16:02;-1.15;96.55
71801;HTU21D;59647;55.838;37.292;2023-01-28T10:18:32;-1.16;95.62
71801;HTU21D;59647;55.838;37.292;2023-01-28T10:21:04;-1.12;96.27
71801;HTU21D;59647;55.838;37.292;2023-01-28T10:23:43;-1.08;95.88
71801;HTU21D;59647;55.838;37.292;2023-01-28T10:26:14;-1.02;96.13
71801;HTU21D;59647;55.838;37.292;2023-01-28T10:28:40;-0.98;95.22
71801;HTU21D;59647;55.838;37.292;2023-01-28T10:31:10;-0.91;95.39
71801;HTU21D;59647;55.838;37.292;2023-01-28T10:33:36;-0.83;95.77
71801;HTU21D;59647;55.838;37.292;2023-01-28T10:36:04;-0.81;95.73
71801;HTU21D;59647;55.838;37.292;2023-01-28T10:38:30;-0.80;95.65
71801;HTU21D;59647;55.838;37.292;2023-01-28T10:40:57;-0.72;95.65
71801;HTU21D;59647;55.838;37.292;2023-01-28T10:43:24;-0.66;95.43
71801;HTU21D;59647;55.838;37.292;2023-01-28T10:45:54;-0.54;95.18
71801;HTU21D;59647;55.838;37.292;2023-01-28T10:48:23;-0.40;94.56
71801;HTU21D;59647;55.838;37.292;2023-01-28T10:50:53;-0.28;94.88
71801;HTU21D;59647;55.838;37.292;2023-01-28T10:53:43;-0.23;95.08
71801;HTU21D;59647;55.838;37.292;2023-01-28T10:56:08;-0.31;93.85
71801;HTU21D;59647;55.838;37.292;2023-01-28T10:58:35;-0.27;94.43
71801;HTU21D;59647;55.838;37.292;2023-01-28T11:01:04;-0.22;94.74
71801;HTU21D;59647;55.838;37.292;2023-01-28T11:03:31;-0.16;94.05
71801;HTU21D;59647;55.838;37.292;2023-01-28T11:05:59;-0.15;93.59
71801;HTU21D;59647;55.838;37.292;2023-01-28T11:08:25;-0.12;93.88
71801;HTU21D;59647;55.838;37.292;2023-01-28T11:10:52;-0.23;94.54
71801;HTU21D;59647;55.838;37.292;2023-01-28T11:13:25;-0.28;93.97
71801;HTU21D;59647;55.838;37.292;2023-01-28T11:18:23;-0.16;93.98
71801;HTU21D;59647;55.838;37.292;2023-01-28T11:20:53;-0.20;94.19
71801;HTU21D;59647;55.838;37.292;2023-01-28T11:23:28;-0.22;94.35
71801;HTU21D;59647;55.838;37.292;2023-01-28T11:25:59;-0.30;94.40
71801;HTU21D;59647;55.838;37.292;2023-01-28T11:28:26;-0.29;94.94
71801;HTU21D;59647;55.838;37.292;2023-01-28T11:30:52;-0.35;94.30
71801;HTU21D;59647;55.838;37.292;2023-01-28T11:36:13;-0.27;94.35
71801;HTU21D;59647;55.838;37.292;2023-01-28T11:39:15;-0.19;94.07
71801;HTU21D;59647;55.838;37.292;2023-01-28T11:41:33;-0.06;93.52
71801;HTU21D;59647;55.838;37.292;2023-01-28T11:44:00;0.02;93.14
71801;HTU21D;59647;55.838;37.292;2023-01-28T11:57:28;0.29;90.47
71801;HTU21D;59647;55.838;37.292;2023-01-28T11:59:58;0.35;91.87
71801;HTU21D;59647;55.838;37.292;2023-01-28T12:20:27;0.18;90.47
71801;HTU21D;59647;55.838;37.292;2023-01-28T12:23:09;0.15;91.63
71801;HTU21D;59647;55.838;37.292;2023-01-28T12:41:21;-0.22;92.58
71801;HTU21D;59647;55.838;37.292;2023-01-28T12:49:13;-0.23;93.54
71801;HTU21D;59647;55.838;37.292;2023-01-28T12:52:01;-0.24;92.67
71801;HTU21D;59647;55.838;37.292;2023-01-28T12:56:51;-0.21;92.97
71801;HTU21D;59647;55.838;37.292;2023-01-28T12:59:28;-0.25;93.10
71801;HTU21D;59647;55.838;37.292;2023-01-28T13:04:41;-0.21;92.82
71801;HTU21D;59647;55.838;37.292;2023-01-28T13:07:12;-0.17;93.47
71801;HTU21D;59647;55.838;37.292;2023-01-28T13:09:40;-0.17;93.33
71801;HTU21D;59647;55.838;37.292;2023-01-28T13:12:08;-0.21;93.16
71801;HTU21D;59647;55.838;37.292;2023-01-28T13:14:34;-0.15;93.40
71801;HTU21D;59647;55.838;37.292;2023-01-28T13:19:58;-0.10;92.98
71801;HTU21D;59647;55.838;37.292;2023-01-28T13:24:50;-0.01;92.85
71801;HTU21D;59647;55.838;37.292;2023-01-28T13:27:21;-0.00;93.17
71801;HTU21D;59647;55.838;37.292;2023-01-28T13:29:47;-0.06;93.20
71801;HTU21D;59647;55.838;37.292;2023-01-28T13:32:30;-0.13;92.37
71801;HTU21D;59647;55.838;37.292;2023-01-28T13:34:57;-0.17;92.95
71801;HTU21D;59647;55.838;37.292;2023-01-28T13:39:53;-0.24;93.00
71801;HTU21D;59647;55.838;37.292;2023-01-28T13:42:24;-0.28;93.27
71801;HTU21D;59647;55.838;37.292;2023-01-28T13:47:37;-0.39;93.42
71801;HTU21D;59647;55.838;37.292;2023-01-28T13:50:17;-0.37;93.37
71801;HTU21D;59647;55.838;37.292;2023-01-28T13:55:48;-0.29;93.56
71801;HTU21D;59647;55.838;37.292;2023-01-28T14:01:04;-0.26;93.44
71801;HTU21D;59647;55.838;37.292;2023-01-28T14:16:55;-0.22;93.08
71801;HTU21D;59647;55.838;37.292;2023-01-28T14:19:33;-0.20;93.04
71801;HTU21D;59647;55.838;37.292;2023-01-28T14:22:12;-0.19;92.97
71801;HTU21D;59647;55.838;37.292;2023-01-28T14:27:36;-0.10;93.41
71801;HTU21D;59647;55.838;37.292;2023-01-28T14:33:13;-0.09;92.77
71801;HTU21D;59647;55.838;37.292;2023-01-28T14:35:44;-0.08;92.69
71801;HTU21D;59647;55.838;37.292;2023-01-28T14:38:16;-0.07;92.66
71801;HTU21D;59647;55.838;37.292;2023-01-28T14:40:44;-0.02;92.88
71801;HTU21D;59647;55.838;37.292;2023-01-28T14:43:14;-0.01;92.73
71801;HTU21D;59647;55.838;37.292;2023-01-28T14:58:49;-0.06;92.43
71801;HTU21D;59647;55.838;37.292;2023-01-28T15:01:23;-0.03;92.46
71801;HTU21D;59647;55.838;37.292;2023-01-28T15:03:49;-0.03;92.65
71801;HTU21D;59647;55.838;37.292;2023-01-28T15:06:16;-0.08;92.75
71801;HTU21D;59647;55.838;37.292;2023-01-28T15:08:42;-0.13;92.72
71801;HTU21D;59647;55.838;37.292;2023-01-28T15:11:08;-0.23;92.59
71801;HTU21D;59647;55.838;37.292;2023-01-28T15:13:36;-0.28;92.72
71801;HTU21D;59647;55.838;37.292;2023-01-28T15:16:03;-0.35;93.08
71801;HTU21D;59647;55.838;37.292;2023-01-28T15:18:33;-0.39;93.15
71801;HTU21D;59647;55.838;37.292;2023-01-28T15:21:01;-0.41;93.27
71801;HTU21D;59647;55.838;37.292;2023-01-28T15:23:38;-0.41;93.55
71801;HTU21D;59647;55.838;37.292;2023-01-28T15:26:18;-0.41;93.63
71801;HTU21D;59647;55.838;37.292;2023-01-28T15:28:45;-0.42;93.50
71801;HTU21D;59647;55.838;37.292;2023-01-28T15:31:26;-0.44;93.48
71801;HTU21D;59647;55.838;37.292;2023-01-28T15:36:29;-0.41;93.54
71801;HTU21D;59647;55.838;37.292;2023-01-28T15:39:23;-0.40;93.51
71801;HTU21D;59647;55.838;37.292;2023-01-28T15:41:56;-0.49;93.40
71801;HTU21D;59647;55.838;37.292;2023-01-28T15:47:00;-0.43;93.84
71801;HTU21D;59647;55.838;37.292;2023-01-28T15:49:36;-0.43;93.45
71801;HTU21D;59647;55.838;37.292;2023-01-28T15:52:07;-0.43;93.62
71801;HTU21D;59647;55.838;37.292;2023-01-28T15:54:36;-0.37;93.27
71801;HTU21D;59647;55.838;37.292;2023-01-28T15:57:18;-0.37;93.55
71801;HTU21D;59647;55.838;37.292;2023-01-28T16:02:46;-0.39;93.54
71801;HTU21D;59647;55.838;37.292;2023-01-28T16:05:23;-0.39;93.42
71801;HTU21D;59647;55.838;37.292;2023-01-28T16:07:49;-0.38;93.45
71801;HTU21D;59647;55.838;37.292;2023-01-28T16:10:25;-0.32;93.43
71801;HTU21D;59647;55.838;37.292;2023-01-28T16:12:52;-0.36;93.22
71801;HTU21D;59647;55.838;37.292;2023-01-28T16:15:19;-0.40;93.20
71801;HTU21D;59647;55.838;37.292;2023-01-28T16:17:49;-0.38;93.55
71801;HTU21D;59647;55.838;37.292;2023-01-28T16:20:20;-0.34;93.63
71801;HTU21D;59647;55.838;37.292;2023-01-28T16:22:46;-0.27;93.66
71801;HTU21D;59647;55.838;37.292;2023-01-28T16:27:46;-0.39;93.11
71801;HTU21D;59647;55.838;37.292;2023-01-28T16:30:12;-0.36;93.29
71801;HTU21D;59647;55.838;37.292;2023-01-28T16:32:38;-0.37;93.40
71801;HTU21D;59647;55.838;37.292;2023-01-28T16:35:14;-0.38;93.37
71801;HTU21D;59647;55.838;37.292;2023-01-28T16:37:46;-0.41;93.21
71801;HTU21D;59647;55.838;37.292;2023-01-28T16:40:19;-0.38;93.43
71801;HTU21D;59647;55.838;37.292;2023-01-28T16:42:46;-0.34;93.08
71801;HTU21D;59647;55.838;37.292;2023-01-28T16:45:16;-0.30;93.30
71801;HTU21D;59647;55.838;37.292;2023-01-28T16:47:43;-0.39;92.74
71801;HTU21D;59647;55.838;37.292;2023-01-28T16:50:12;-0.49;93.30
71801;HTU21D;59647;55.838;37.292;2023-01-28T16:52:41;-0.41;93.72
71801;HTU21D;59647;55.838;37.292;2023-01-28T16:55:11;-0.37;93.39
71801;HTU21D;59647;55.838;37.292;2023-01-28T16:57:38;-0.38;93.33
71801;HTU21D;59647;55.838;37.292;2023-01-28T17:00:32;-0.41;93.28
71801;HTU21D;59647;55.838;37.292;2023-01-28T17:03:01;-0.43;93.66
71801;HTU21D;59647;55.838;37.292;2023-01-28T17:05:26;-0.39;93.72
71801;HTU21D;59647;55.838;37.292;2023-01-28T17:07:52;-0.40;93.43
71801;HTU21D;59647;55.838;37.292;2023-01-28T17:10:20;-0.38;93.51
71801;HTU21D;59647;55.838;37.292;2023-01-28T17:12:46;-0.41;93.28
71801;HTU21D;59647;55.838;37.292;2023-01-28T17:15:12;-0.38;93.28
71801;HTU21D;59647;55.838;37.292;2023-01-28T17:17:37;-0.37;93.21
71801;HTU21D;59647;55.838;37.292;2023-01-28T17:20:03;-0.37;93.44
71801;HTU21D;59647;55.838;37.292;2023-01-28T17:22:30;-0.38;93.39
71801;HTU21D;59647;55.838;37.292;2023-01-28T17:24:56;-0.42;93.25
71801;HTU21D;59647;55.838;37.292;2023-01-28T17:27:21;-0.40;93.19
